City Of Vicksburg — WDC2660 — position and weather

sailwx.info

Track history (hours):
 
Tides and Currents Weather Stations Pressure Air Temp Water Temp Dewpoint Dewpoint Depression Visibility Wind Speed Wind Dir Waves Ship Positions

City Of Vicksburg

Owner: Kirby Inland Marine LP, Houston, TX. More information available from US FCC via Universal Licensing System and Coast Guard Vessel Documentation Center.

Last reported at 2016-Feb-06 21:31 UTC. Time now 2016-Feb-12 05:37 UTC.
Position N 32°04' W 091°04'.

Length 320 m; draft 2.9 m.

Type: Towing. MMSI: 366996120.

Date/timePositionNaut miles runAvg speedWind from/ knotsBaromVisibWave heightAir tempDewpointWater temp
2016-Feb-06 21:31N 32°04' W 091°04'4 4.5
2016-Feb-06 20:34N 32°08' W 091°01'10 9.6
2016-Feb-06 19:33N 32°17' W 090°57'5 4.7
2016-Feb-06 18:34N 32°21' W 090°59'8 7.6
2016-Feb-06 17:33N 32°27' W 091°05'20 6.8
2016-Feb-06 14:32N 32°47' W 091°10'9 0.2
2016-Feb-04 15:21N 32°38' W 091°09'5 5.8
2016-Feb-04 14:34N 32°34' W 091°06'5 5.5
2016-Feb-04 13:34N 32°28' W 091°06'6 5.9
2016-Feb-04 12:34N 32°25' W 091°00'5 4.7
2016-Feb-04 11:34N 32°21' W 090°58'4 3.7
2016-Feb-04 10:34N 32°18' W 090°55'5 5.4
2016-Feb-04 09:34N 32°14' W 090°59'6 5.6
2016-Feb-04 08:34N 32°08' W 091°00'5 5.0
2016-Feb-04 07:34N 32°08' W 091°06'5 5.4
2016-Feb-04 06:33N 32°03' W 091°04'  
Track history (hours):
 
Tides and Currents Weather Stations Pressure Air Temp Water Temp Dewpoint Dewpoint Depression Visibility Wind Speed Wind Dir Waves Ship Positions

City Of Vicksburg

Owner: Kirby Inland Marine LP, Houston, TX. More information available from US FCC via Universal Licensing System and Coast Guard Vessel Documentation Center.

Last reported at 2016-Feb-06 21:31 UTC. Time now 2016-Feb-12 05:37 UTC.
Position N 32°04' W 091°04'.

Length 320 m; draft 2.9 m.

Type: Towing. MMSI: 366996120.

Date/timePositionNaut miles runAvg speedWind from/ knotsBaromVisibWave heightAir tempDewpointWater temp
2016-Feb-06 21:31N 32°04' W 091°04'4 4.5
2016-Feb-06 20:34N 32°08' W 091°01'10 9.6
2016-Feb-06 19:33N 32°17' W 090°57'5 4.7
2016-Feb-06 18:34N 32°21' W 090°59'8 7.6
2016-Feb-06 17:33N 32°27' W 091°05'20 6.8
2016-Feb-06 14:32N 32°47' W 091°10'9 0.2
2016-Feb-04 15:21N 32°38' W 091°09'5 5.8
2016-Feb-04 14:34N 32°34' W 091°06'5 5.5
2016-Feb-04 13:34N 32°28' W 091°06'6 5.9
2016-Feb-04 12:34N 32°25' W 091°00'5 4.7
2016-Feb-04 11:34N 32°21' W 090°58'4 3.7
2016-Feb-04 10:34N 32°18' W 090°55'5 5.4
2016-Feb-04 09:34N 32°14' W 090°59'6 5.6
2016-Feb-04 08:34N 32°08' W 091°00'5 5.0
2016-Feb-04 07:34N 32°08' W 091°06'5 5.4
2016-Feb-04 06:33N 32°03' W 091°04'  

Dump ship's entire track history